Disclaimer

Please do not use the information listed here in-flight or in-navigation, as they are not provided to us by the airports but are provided by volunteers, so they might be outdated.

Search


Regions


Airport information page

No radio frequency information is available.

Airport informations:
Latitude: 60° 25' 58.00" N
Longitude: 001° 17' 46.00" W
Elevation: 81 feet - 25 meters
Operating hours: Remarks
Operating agency: Civil government, landing fees and diplomatic clearance may be required
Timezone: UTC 0(+1DT) - Last Sunday in March to last Sunday in October
Fuel: Jet A1, without icing nhibitor.

Runway information:
06/24 - 4462 x 102 feet< - >1360 x 31 meters

Recent METARs:
EGPM 210250Z AUTO 12004KT 350V160 9999 BKN020/// 03/02 Q1027
EGPM 210320Z AUTO VRB03KT 9999 FEW020/// 03/03 Q1026
EGPM 210350Z AUTO 13006KT 090V150 9999 NCD 03/01 Q1026

Airport on the map: